createdAt,value
2019-04-22T00:02:22.602Z,99482.95
2019-04-22T00:05:05.810Z,99486.05
2019-04-22T00:07:56.870Z,99485.35
2019-04-22T00:10:26.108Z,99486.48
2019-04-22T00:12:59.845Z,99483.61
2019-04-22T00:15:29.214Z,99484.27
2019-04-22T00:18:07.780Z,99484.95
2019-04-22T00:20:35.389Z,99480.50
2019-04-22T00:23:14.018Z,99475.75
2019-04-22T00:25:50.674Z,99475.71
2019-04-22T00:28:29.200Z,99473.06
2019-04-22T00:30:48.489Z,99469.09
2019-04-22T00:33:29.135Z,99469.09
2019-04-22T00:36:02.027Z,99459.50
2019-04-22T00:38:54.277Z,99460.92
2019-04-22T00:41:05.702Z,99455.55
2019-04-22T00:43:39.195Z,99456.14
2019-04-22T00:46:11.345Z,99460.34
2019-04-22T00:49:09.568Z,99450.41
2019-04-22T00:51:35.144Z,99454.89
2019-04-22T00:53:48.132Z,99449.66
2019-04-22T00:56:32.599Z,99445.45
2019-04-22T00:58:50.207Z,99446.17
2019-04-22T01:01:26.560Z,99444.59
2019-04-22T01:04:05.639Z,99437.80
2019-04-22T01:06:30.734Z,99436.86
2019-04-22T01:09:13.664Z,99428.45
2019-04-22T01:11:33.724Z,99431.70
2019-04-22T01:14:09.054Z,99433.31
2019-04-22T01:16:42.705Z,99429.94
2019-04-22T01:19:19.831Z,99420.44
2019-04-22T01:21:44.908Z,99424.88
2019-04-22T01:24:19.363Z,99422.05
2019-04-22T01:26:49.489Z,99423.56
2019-04-22T01:29:14.831Z,99421.73
2019-04-22T01:31:38.482Z,99421.30
2019-04-22T01:34:23.196Z,99425.25
2019-04-22T01:37:00.114Z,99421.43
2019-04-22T01:39:44.326Z,99418.12
2019-04-22T01:42:10.816Z,99420.42
2019-04-22T01:44:47.148Z,99421.08
2019-04-22T01:47:18.594Z,99419.77
2019-04-22T01:49:47.891Z,99420.95
2019-04-22T01:52:20.041Z,99412.80
2019-04-22T01:54:56.861Z,99416.38
2019-04-22T01:57:22.986Z,99412.48
2019-04-22T01:59:52.008Z,99406.52
2019-04-22T02:02:40.096Z,99410.66
2019-04-22T02:10:14.068Z,99406.33
2019-04-22T02:12:51.804Z,99403.42
2019-04-22T02:15:17.017Z,99402.77
2019-04-22T02:17:56.177Z,99400.30
2019-04-22T02:20:29.705Z,99402.62
2019-04-22T02:23:40.168Z,99397.34
2019-04-22T02:31:23.094Z,99389.94
2019-04-22T02:43:59.505Z,99376.65
2019-04-22T02:46:40.724Z,99372.12
2019-04-22T02:51:21.945Z,99359.56
2019-04-22T02:54:25.401Z,99364.92
2019-04-22T02:56:34.132Z,99353.86
2019-04-22T02:59:14.405Z,99345.28
2019-04-22T03:01:39.754Z,99346.27
2019-04-22T03:09:19.135Z,99342.64
2019-04-22T03:11:56.736Z,99332.14
2019-04-22T03:14:22.685Z,99329.16
2019-04-22T03:19:43.378Z,99322.23
2019-04-22T03:27:00.908Z,99306.38
2019-04-22T03:37:49.206Z,99309.16
2019-04-22T03:50:24.898Z,99305.48
2019-04-22T03:58:18.983Z,99302.30
2019-04-22T04:03:09.612Z,99299.26
2019-04-22T04:05:45.438Z,99295.58
2019-04-22T04:13:33.771Z,99286.97
2019-04-22T04:15:53.583Z,99296.33
2019-04-22T04:18:30.839Z,99294.13
2019-04-22T04:21:14.520Z,99285.59
2019-04-22T04:23:40.993Z,99289.63
2019-04-22T04:26:05.069Z,99281.56
2019-04-22T04:31:22.459Z,99278.89
2019-04-22T04:33:50.972Z,99281.08
2019-04-22T04:39:00.022Z,99270.00
2019-04-22T04:41:30.876Z,99268.16
2019-04-22T04:44:15.132Z,99265.52
2019-04-22T04:46:37.587Z,99265.80
2019-04-22T04:51:32.978Z,99266.75
2019-04-22T04:54:13.294Z,99273.47
2019-04-22T04:57:49.158Z,99269.94
2019-04-22T05:01:44.604Z,99268.28
2019-04-22T05:04:26.457Z,99266.63
2019-04-22T05:07:02.879Z,99273.15
2019-04-22T05:17:07.536Z,99276.01
2019-04-22T05:19:26.194Z,99278.27
2019-04-22T05:22:02.379Z,99266.59
2019-04-22T05:24:42.637Z,99268.98
2019-04-22T05:27:16.390Z,99262.98
2019-04-22T05:29:46.502Z,99263.98
2019-04-22T05:32:12.009Z,99255.86
2019-04-22T05:34:40.106Z,99255.16
2019-04-22T05:37:14.793Z,99260.33
2019-04-22T05:39:45.378Z,99254.45
2019-04-22T05:42:20.261Z,99249.28
2019-04-22T05:44:55.442Z,99248.64
2019-04-22T05:47:19.603Z,99251.19
2019-04-22T05:49:57.013Z,99245.06
2019-04-22T05:52:26.623Z,99242.58
2019-04-22T05:55:06.624Z,99244.81
2019-04-22T05:57:31.331Z,99240.11
2019-04-22T06:00:16.262Z,99245.08
2019-04-22T06:05:13.254Z,99241.34
2019-04-22T06:07:47.145Z,99241.33
2019-04-22T06:10:26.930Z,99241.55
2019-04-22T06:13:06.725Z,99243.93
2019-04-22T06:15:58.996Z,99241.42
2019-04-22T06:18:36.695Z,99242.03
2019-04-22T06:21:07.130Z,99241.28
2019-04-22T06:23:40.477Z,99247.53
2019-04-22T06:31:16.018Z,99230.13
2019-04-22T06:33:56.488Z,99236.52
2019-04-22T06:36:27.493Z,99230.65
2019-04-22T06:38:55.206Z,99233.44
2019-04-22T06:41:31.558Z,99230.19
2019-04-22T06:44:05.034Z,99227.06
2019-04-22T06:46:38.496Z,99224.75
2019-04-22T06:49:11.285Z,99220.62
2019-04-22T06:51:40.562Z,99222.03
2019-04-22T06:54:14.757Z,99224.59
2019-04-22T06:56:43.122Z,99221.25
2019-04-22T06:59:18.862Z,99218.59
2019-04-22T07:01:52.530Z,99217.48
2019-04-22T07:04:22.253Z,99225.31
2019-04-22T07:06:56.515Z,99227.23
2019-04-22T07:12:02.104Z,99221.59
2019-04-22T07:14:33.077Z,99213.64
2019-04-22T07:17:03.656Z,99214.67
2019-04-22T07:19:40.925Z,99211.52
2019-04-22T07:24:46.148Z,99200.83
2019-04-22T07:27:14.518Z,99206.75
2019-04-22T07:29:58.805Z,99204.70
2019-04-22T07:32:40.112Z,99203.34
2019-04-22T07:35:03.627Z,99200.23
2019-04-22T07:39:56.338Z,99197.56
2019-04-22T07:42:58.788Z,99196.41
2019-04-22T07:45:44.267Z,99191.43
2019-04-22T07:51:05.540Z,99186.84
2019-04-22T07:53:48.961Z,99188.20
2019-04-22T07:56:29.339Z,99184.19
2019-04-22T07:59:09.645Z,99182.98
2019-04-22T08:01:35.500Z,99173.55
2019-04-22T08:04:35.927Z,99180.92
2019-04-22T08:07:18.155Z,99178.86
2019-04-22T08:10:31.378Z,99172.16
2019-04-22T08:12:50.753Z,99169.31
2019-04-22T08:15:27.588Z,99165.09
2019-04-22T08:18:15.199Z,99163.33
2019-04-22T08:20:28.538Z,99152.63
2019-04-22T08:23:04.884Z,99153.70
2019-04-22T08:25:33.469Z,99145.31
2019-04-22T08:28:11.814Z,99146.21
2019-04-22T08:30:42.961Z,99149.08
2019-04-22T08:33:16.138Z,99151.08
2019-04-22T08:36:00.813Z,99144.56
2019-04-22T08:41:23.038Z,99139.06
2019-04-22T08:43:57.843Z,99130.30
2019-04-22T08:46:27.356Z,99128.67
2019-04-22T08:48:57.734Z,99117.89
2019-04-22T09:01:39.161Z,99110.95
2019-04-22T09:04:11.687Z,99095.91
2019-04-22T09:07:05.797Z,99090.38
2019-04-22T09:09:19.569Z,99089.24
2019-04-22T09:11:54.617Z,99081.73
2019-04-22T09:14:28.105Z,99080.39
2019-04-22T09:17:02.243Z,99075.34
2019-04-22T09:19:32.256Z,99068.61
2019-04-22T09:22:05.227Z,99060.38
2019-04-22T09:24:36.124Z,99064.26
2019-04-22T09:27:11.208Z,99063.23
2019-04-22T09:29:40.015Z,99056.90
2019-04-22T09:32:20.270Z,99046.80
2019-04-22T09:34:46.999Z,99054.67
2019-04-22T09:40:13.907Z,99049.65
2019-04-22T09:42:24.065Z,99044.72
2019-04-22T09:44:55.614Z,99045.29
2019-04-22T09:47:37.290Z,99029.81
2019-04-22T09:50:03.684Z,99032.59
2019-04-22T09:52:35.933Z,99022.92
2019-04-22T09:57:38.325Z,99013.56
2019-04-22T10:00:15.455Z,99010.63
2019-04-22T10:02:47.417Z,99002.06
2019-04-22T10:05:23.828Z,99002.84
2019-04-22T10:07:52.515Z,98995.37
2019-04-22T10:10:18.800Z,98993.88
2019-04-22T10:12:54.179Z,98987.95
2019-04-22T10:15:36.264Z,98985.75
2019-04-22T10:18:04.798Z,98976.86
2019-04-22T10:20:38.073Z,98975.09
2019-04-22T10:23:12.847Z,98969.04
2019-04-22T10:25:46.156Z,98965.49
2019-04-22T10:28:16.390Z,98971.80
2019-04-22T10:30:47.069Z,98974.96
2019-04-22T10:33:15.034Z,98966.82
2019-04-22T10:35:30.645Z,98978.70
2019-04-22T10:38:00.670Z,98962.84
2019-04-22T10:40:36.485Z,98952.90
2019-04-22T10:43:09.565Z,98953.59
2019-04-22T10:45:41.817Z,98952.06
2019-04-22T10:48:12.731Z,98939.89
2019-04-22T10:50:46.643Z,98939.13
2019-04-22T10:53:19.535Z,98943.91
2019-04-22T10:55:51.513Z,98936.95
2019-04-22T10:58:22.997Z,98931.92
2019-04-22T11:00:55.801Z,98921.67
2019-04-22T11:03:28.425Z,98927.95
2019-04-22T11:06:01.244Z,98924.55
2019-04-22T11:08:42.416Z,98908.16
2019-04-22T11:11:19.130Z,98907.92
2019-04-22T11:13:37.918Z,98905.02
2019-04-22T11:16:09.708Z,98905.39
2019-04-22T11:18:41.302Z,98899.12
2019-04-22T11:21:13.797Z,98903.46
2019-04-22T11:23:44.852Z,98894.92
2019-04-22T11:26:15.676Z,98897.86
2019-04-22T11:28:47.647Z,98899.38
2019-04-22T11:31:18.813Z,98893.19
2019-04-22T11:33:50.260Z,98886.94
2019-04-22T11:36:21.768Z,98886.74
2019-04-22T11:38:58.385Z,98879.24
2019-04-22T11:41:27.655Z,98884.41
2019-04-22T11:43:59.157Z,98881.05
2019-04-22T11:46:31.415Z,98881.19
2019-04-22T11:49:03.639Z,98885.94
2019-04-22T11:51:35.908Z,98878.00
2019-04-22T11:54:07.231Z,98858.03
2019-04-22T11:56:38.913Z,98863.48
2019-04-22T11:59:10.948Z,98864.25
2019-04-22T12:01:42.842Z,98861.20
2019-04-22T12:04:13.934Z,98865.21
2019-04-22T12:06:45.852Z,98854.91
2019-04-22T12:09:19.592Z,98855.90
2019-04-22T12:12:11.823Z,98856.36
2019-04-22T12:14:42.697Z,98850.12
2019-04-22T12:17:15.878Z,98846.85
2019-04-22T12:19:48.215Z,98839.85
2019-04-22T12:22:20.880Z,98834.04
2019-04-22T12:24:52.449Z,98830.85
2019-04-22T12:27:24.814Z,98824.64
2019-04-22T12:29:56.762Z,98820.09
2019-04-22T12:32:27.643Z,98821.56
2019-04-22T12:34:59.803Z,98810.30
2019-04-22T12:37:36.051Z,98813.30
2019-04-22T12:40:04.257Z,98804.90
2019-04-22T12:42:35.440Z,98802.05
2019-04-22T12:45:06.659Z,98801.57
2019-04-22T12:47:40.284Z,98790.45
2019-04-22T12:50:18.677Z,98794.03
2019-04-22T12:52:52.717Z,98790.08
2019-04-22T12:55:17.588Z,98782.39
2019-04-22T12:57:50.682Z,98780.33
2019-04-22T13:00:22.403Z,98771.58
2019-04-22T13:02:54.689Z,98768.95
2019-04-22T13:05:26.918Z,98767.00
2019-04-22T13:08:00.112Z,98762.34
2019-04-22T13:10:41.532Z,98765.77
2019-04-22T13:13:05.014Z,98758.26
2019-04-22T13:15:36.984Z,98756.05
2019-04-22T13:18:17.071Z,98748.80
2019-04-22T13:20:42.171Z,98746.30
2019-04-22T13:23:14.012Z,98747.98
2019-04-22T13:25:45.010Z,98738.02
2019-04-22T13:28:16.185Z,98735.62
2019-04-22T13:30:48.542Z,98727.63
2019-04-22T13:33:20.900Z,98731.34
2019-04-22T13:35:52.242Z,98718.05
2019-04-22T13:38:24.971Z,98719.80
2019-04-22T13:43:29.538Z,98726.78
2019-04-22T13:46:01.792Z,98715.55
2019-04-22T13:48:53.906Z,98716.95
2019-04-22T13:51:41.011Z,98707.84
2019-04-22T13:53:53.453Z,98719.20
2019-04-22T13:56:30.339Z,98696.81
2019-04-22T13:58:56.392Z,98691.95
2019-04-22T14:01:20.551Z,98675.34
2019-04-22T14:04:00.767Z,98674.95
2019-04-22T14:06:32.010Z,98676.09
2019-04-22T14:09:09.548Z,98664.05
2019-04-22T14:11:49.824Z,98664.77
2019-04-22T14:14:13.405Z,98665.96
2019-04-22T14:16:44.900Z,98650.59
2019-04-22T14:19:16.201Z,98654.48
2019-04-22T14:21:47.549Z,98649.89
2019-04-22T14:24:19.787Z,98651.72
2019-04-22T14:27:01.299Z,98635.91
2019-04-22T14:29:23.913Z,98633.01
2019-04-22T14:32:05.494Z,98621.19
2019-04-22T14:34:28.545Z,98630.17
2019-04-22T14:36:59.750Z,98622.20
2019-04-22T14:39:30.991Z,98620.78
2019-04-22T14:42:21.702Z,98615.46
2019-04-22T14:47:36.119Z,98603.99
2019-04-22T14:50:00.468Z,98613.37
2019-04-22T14:52:33.526Z,98600.08
2019-04-22T14:54:54.079Z,98600.03
2019-04-22T14:57:19.217Z,98601.67
2019-04-22T14:59:50.319Z,98598.58
2019-04-22T15:02:21.536Z,98580.33
2019-04-22T15:04:52.313Z,98586.49
2019-04-22T15:07:23.406Z,98585.09
2019-04-22T15:09:55.559Z,98591.30
2019-04-22T15:12:36.469Z,98588.09
2019-04-22T15:15:03.844Z,98584.02
2019-04-22T15:17:42.898Z,98582.41
2019-04-22T15:20:41.747Z,98578.45
2019-04-22T15:23:12.759Z,98570.27
2019-04-22T15:25:44.262Z,98571.89
2019-04-22T15:28:15.368Z,98562.95
2019-04-22T15:30:47.851Z,98567.09
2019-04-22T15:33:19.562Z,98563.48
2019-04-22T15:35:51.534Z,98559.23
2019-04-22T15:38:24.331Z,98555.72
2019-04-22T15:40:56.654Z,98557.03
2019-04-22T15:43:31.214Z,98557.93
2019-04-22T15:46:03.733Z,98558.31
2019-04-22T15:48:34.221Z,98551.36
2019-04-22T15:51:06.816Z,98543.88
2019-04-22T15:53:38.102Z,98540.88
2019-04-22T15:56:10.552Z,98538.53
2019-04-22T15:58:41.891Z,98538.95
2019-04-22T16:01:21.826Z,98537.36
2019-04-22T16:03:46.893Z,98540.05
2019-04-22T16:06:17.820Z,98537.61
2019-04-22T16:08:49.820Z,98537.69
2019-04-22T16:11:22.109Z,98537.77
2019-04-22T16:13:54.579Z,98532.16
2019-04-22T16:16:25.528Z,98532.78
2019-04-22T16:18:58.549Z,98531.82
2019-04-22T16:21:39.737Z,98535.80
2019-04-22T16:24:27.900Z,98532.20
2019-04-22T16:27:02.560Z,98530.67
2019-04-22T16:29:34.787Z,98525.20
2019-04-22T16:32:07.354Z,98524.31
2019-04-22T16:34:38.466Z,98520.81
2019-04-22T16:37:10.479Z,98518.84
2019-04-22T16:39:43.722Z,98513.86
2019-04-22T16:42:27.840Z,98512.20
2019-04-22T16:44:49.444Z,98508.44
2019-04-22T16:47:21.696Z,98511.13
2019-04-22T16:49:52.563Z,98511.75
2019-04-22T16:52:23.783Z,98508.58
2019-04-22T16:54:54.874Z,98509.55
2019-04-22T16:57:28.109Z,98510.84
2019-04-22T17:00:00.464Z,98508.73
2019-04-22T17:02:51.782Z,98504.28
2019-04-22T17:05:53.726Z,98501.58
2019-04-22T17:08:26.560Z,98497.28
2019-04-22T17:10:57.689Z,98493.15
2019-04-22T17:13:30.926Z,98499.58
2019-04-22T17:16:02.306Z,98490.72
2019-04-22T17:18:33.373Z,98480.00
2019-04-22T17:21:07.128Z,98483.98
2019-04-22T17:23:37.990Z,98483.59
2019-04-22T17:26:10.433Z,98485.78
2019-04-22T17:28:41.767Z,98484.16
2019-04-22T17:31:12.980Z,98483.86
2019-04-22T17:33:44.654Z,98483.70
2019-04-22T17:36:18.211Z,98482.42
2019-04-22T17:39:00.024Z,98480.84
2019-04-22T17:41:38.745Z,98480.70
2019-04-22T17:44:28.742Z,98479.00
2019-04-22T17:47:03.913Z,98478.09
2019-04-22T17:49:50.477Z,98481.61
2019-04-22T17:54:50.254Z,98476.56
2019-04-22T17:57:30.405Z,98476.72
2019-04-22T17:59:56.805Z,98474.25
2019-04-22T18:02:24.660Z,98478.95
2019-04-22T18:04:50.813Z,98476.00
2019-04-22T18:13:07.548Z,98473.14
2019-04-22T18:15:30.737Z,98473.33
2019-04-22T18:18:08.783Z,98473.23
2019-04-22T18:20:30.784Z,98469.21
2019-04-22T18:22:56.736Z,98481.40
2019-04-22T18:25:41.731Z,98474.46
2019-04-22T18:28:22.216Z,98474.48
2019-04-22T18:30:37.426Z,98474.92
2019-04-22T18:33:20.735Z,98477.84
2019-04-22T18:35:49.089Z,98478.17
2019-04-22T18:38:33.170Z,98468.41
2019-04-22T18:41:03.122Z,98475.27
2019-04-22T18:43:35.623Z,98477.75
2019-04-22T18:46:12.652Z,98480.30
2019-04-22T18:48:37.680Z,98478.70
2019-04-22T18:51:18.517Z,98479.34
2019-04-22T18:54:21.199Z,98482.72
2019-04-22T18:56:50.876Z,98481.20
2019-04-22T18:59:12.354Z,98477.17
2019-04-22T19:01:37.800Z,98473.39
2019-04-22T19:04:14.096Z,98478.38
2019-04-22T19:07:01.783Z,98481.53
2019-04-22T19:09:41.528Z,98481.80
2019-04-22T19:12:22.810Z,98481.92
2019-04-22T19:14:52.955Z,98476.13
2019-04-22T19:17:27.458Z,98481.93
2019-04-22T19:20:00.205Z,98469.42
2019-04-22T19:22:26.568Z,98472.70
2019-04-22T19:24:47.659Z,98471.63
2019-04-22T19:27:26.594Z,98474.08
2019-04-22T19:30:07.495Z,98471.84
2019-04-22T19:32:31.055Z,98476.30
2019-04-22T19:35:03.767Z,98477.48
2019-04-22T19:37:33.183Z,98466.42
2019-04-22T19:40:30.544Z,98470.81
2019-04-22T19:42:53.478Z,98470.81
2019-04-22T19:45:10.808Z,98467.48
2019-04-22T19:47:50.068Z,98470.34
2019-04-22T19:50:23.834Z,98464.83
2019-04-22T19:53:01.669Z,98470.09
2019-04-22T19:55:32.701Z,98471.20
2019-04-22T19:57:54.299Z,98468.25
2019-04-22T20:00:37.447Z,98465.23
2019-04-22T20:03:48.225Z,98466.17
2019-04-22T20:06:10.993Z,98458.92
2019-04-22T20:08:44.124Z,98462.61
2019-04-22T20:11:19.599Z,98457.23
2019-04-22T20:13:48.340Z,98453.81
2019-04-22T20:16:20.707Z,98446.18
2019-04-22T20:18:59.551Z,98446.56
2019-04-22T20:21:28.231Z,98450.33
2019-04-22T20:23:51.473Z,98446.00
2019-04-22T20:26:31.683Z,98440.32
2019-04-22T20:29:02.727Z,98445.84
2019-04-22T20:31:48.659Z,98443.25
2019-04-22T20:34:16.163Z,98435.32
2019-04-22T20:36:58.093Z,98436.50
2019-04-22T20:39:11.038Z,98437.56
2019-04-22T20:41:41.097Z,98428.12
2019-04-22T20:44:24.419Z,98437.05
2019-04-22T20:46:57.369Z,98433.83
2019-04-22T20:49:30.860Z,98436.36
2019-04-22T20:54:39.026Z,98427.00
2019-04-22T20:57:04.323Z,98436.88
2019-04-22T20:59:32.748Z,98429.32
2019-04-22T21:02:06.636Z,98425.37
2019-04-22T21:04:35.970Z,98427.55
2019-04-22T21:07:12.110Z,98426.76
2019-04-22T21:09:48.787Z,98425.06
2019-04-22T21:12:13.915Z,98412.62
2019-04-22T21:15:00.250Z,98417.81
2019-04-22T21:17:28.629Z,98414.16
2019-04-22T21:20:09.982Z,98416.48
2019-04-22T21:22:35.764Z,98416.30
2019-04-22T21:25:02.374Z,98413.23
2019-04-22T21:27:40.367Z,98404.73
2019-04-22T21:30:01.509Z,98406.55
2019-04-22T21:32:38.618Z,98407.45
2019-04-22T21:35:22.865Z,98394.70
2019-04-22T21:37:51.302Z,98400.97
2019-04-22T21:40:26.130Z,98392.37
2019-04-22T21:43:02.201Z,98389.33
2019-04-22T21:45:21.639Z,98373.22
2019-04-22T21:48:15.509Z,98380.21
2019-04-22T21:50:41.383Z,98379.48
2019-04-22T21:53:08.595Z,98381.60
2019-04-22T21:55:43.482Z,98375.44
2019-04-22T21:58:38.513Z,98384.71
2019-04-22T22:01:20.221Z,98382.81
2019-04-22T22:03:55.252Z,98379.86
2019-04-22T22:06:15.127Z,98388.93
2019-04-22T22:08:57.850Z,98382.03
2019-04-22T22:11:28.914Z,98373.52
2019-04-22T22:14:02.683Z,98378.02
2019-04-22T22:16:27.399Z,98372.70
2019-04-22T22:19:06.599Z,98374.88
2019-04-22T22:21:48.070Z,98380.25
2019-04-22T22:24:15.928Z,98368.30
2019-04-22T22:26:47.546Z,98376.16
2019-04-22T22:29:31.704Z,98359.23
2019-04-22T22:31:56.114Z,98371.82
2019-04-22T22:34:24.415Z,98369.48
2019-04-22T22:36:50.587Z,98363.54
2019-04-22T22:39:21.774Z,98369.80
2019-04-22T22:41:44.021Z,98353.53
2019-04-22T22:44:24.171Z,98355.56
2019-04-22T22:47:06.845Z,98355.56
2019-04-22T22:49:44.787Z,98356.06
2019-04-22T22:52:40.973Z,98352.63
2019-04-22T22:54:46.477Z,98345.80
2019-04-22T22:57:27.691Z,98333.13
2019-04-22T22:59:50.219Z,98333.13
2019-04-22T23:02:24.869Z,98331.14
2019-04-22T23:04:57.416Z,98325.92
2019-04-22T23:07:37.544Z,98309.03
2019-04-22T23:10:00.243Z,98321.56
2019-04-22T23:15:06.247Z,98312.30
2019-04-22T23:17:26.176Z,98304.42
2019-04-22T23:19:56.012Z,98312.05
2019-04-22T23:22:36.144Z,98311.48
2019-04-22T23:25:25.103Z,98303.95
2019-04-22T23:27:53.980Z,98299.84
2019-04-22T23:30:38.168Z,98303.08
2019-04-22T23:33:20.157Z,98288.41
2019-04-22T23:35:57.637Z,98299.88
2019-04-22T23:38:42.482Z,98295.78
2019-04-22T23:41:39.169Z,98296.22
2019-04-22T23:44:01.006Z,98291.09
2019-04-22T23:46:38.461Z,98290.92
2019-04-22T23:49:08.850Z,98284.67
2019-04-22T23:51:55.509Z,98277.16
2019-04-22T23:56:47.006Z,98270.63
2019-04-22T23:59:41.364Z,98273.04
